sensor_id;sensor_type;location;lat;lon;timestamp;P1;durP1;ratioP1;P2;durP2;ratioP2
20458;SDS011;10388;52.314;7.938;2023-05-29T00:02:51;8.93;;;3.30;;
20458;SDS011;10388;52.314;7.938;2023-05-29T00:11:35;10.20;;;3.33;;
20458;SDS011;10388;52.314;7.938;2023-05-29T00:18:27;11.70;;;4.03;;
20458;SDS011;10388;52.314;7.938;2023-05-29T00:21:45;13.07;;;3.30;;
20458;SDS011;10388;52.314;7.938;2023-05-29T00:24:46;10.83;;;3.13;;
20458;SDS011;10388;52.314;7.938;2023-05-29T00:27:50;10.37;;;3.27;;
20458;SDS011;10388;52.314;7.938;2023-05-29T00:34:13;14.37;;;2.90;;
20458;SDS011;10388;52.314;7.938;2023-05-29T00:37:23;10.80;;;3.63;;
20458;SDS011;10388;52.314;7.938;2023-05-29T00:40:42;9.90;;;3.27;;
20458;SDS011;10388;52.314;7.938;2023-05-29T00:47:50;9.43;;;3.03;;
20458;SDS011;10388;52.314;7.938;2023-05-29T00:54:20;12.00;;;3.53;;
20458;SDS011;10388;52.314;7.938;2023-05-29T00:56:57;9.93;;;3.43;;
20458;SDS011;10388;52.314;7.938;2023-05-29T01:00:03;14.23;;;3.10;;
20458;SDS011;10388;52.314;7.938;2023-05-29T01:09:48;9.60;;;3.13;;
20458;SDS011;10388;52.314;7.938;2023-05-29T01:29:56;15.80;;;3.30;;
20458;SDS011;10388;52.314;7.938;2023-05-29T01:33:04;12.63;;;2.93;;
20458;SDS011;10388;52.314;7.938;2023-05-29T01:39:44;12.60;;;3.33;;
20458;SDS011;10388;52.314;7.938;2023-05-29T01:42:57;8.40;;;3.00;;
20458;SDS011;10388;52.314;7.938;2023-05-29T01:52:52;9.67;;;3.10;;
20458;SDS011;10388;52.314;7.938;2023-05-29T02:01:57;9.83;;;3.10;;
20458;SDS011;10388;52.314;7.938;2023-05-29T02:05:06;7.63;;;2.60;;
20458;SDS011;10388;52.314;7.938;2023-05-29T02:08:13;11.43;;;2.93;;
20458;SDS011;10388;52.314;7.938;2023-05-29T02:10:48;7.00;;;2.57;;
20458;SDS011;10388;52.314;7.938;2023-05-29T02:17:10;12.33;;;3.03;;
20458;SDS011;10388;52.314;7.938;2023-05-29T02:20:15;10.10;;;3.30;;
20458;SDS011;10388;52.314;7.938;2023-05-29T02:22:57;9.73;;;2.97;;
20458;SDS011;10388;52.314;7.938;2023-05-29T02:25:57;10.67;;;3.33;;
20458;SDS011;10388;52.314;7.938;2023-05-29T02:32:35;6.93;;;2.77;;
20458;SDS011;10388;52.314;7.938;2023-05-29T02:39:25;11.60;;;3.60;;
20458;SDS011;10388;52.314;7.938;2023-05-29T02:55:36;8.03;;;2.90;;
20458;SDS011;10388;52.314;7.938;2023-05-29T02:58:57;10.83;;;2.60;;
20458;SDS011;10388;52.314;7.938;2023-05-29T03:11:34;10.40;;;2.43;;
20458;SDS011;10388;52.314;7.938;2023-05-29T03:14:26;11.87;;;3.27;;
20458;SDS011;10388;52.314;7.938;2023-05-29T03:17:25;10.80;;;3.33;;
20458;SDS011;10388;52.314;7.938;2023-05-29T03:20:18;11.93;;;2.73;;
20458;SDS011;10388;52.314;7.938;2023-05-29T03:23:12;9.50;;;2.70;;
20458;SDS011;10388;52.314;7.938;2023-05-29T03:25:56;11.73;;;2.67;;
20458;SDS011;10388;52.314;7.938;2023-05-29T03:32:11;10.60;;;2.67;;
20458;SDS011;10388;52.314;7.938;2023-05-29T03:35:23;9.70;;;3.07;;
20458;SDS011;10388;52.314;7.938;2023-05-29T03:41:45;7.43;;;2.97;;
20458;SDS011;10388;52.314;7.938;2023-05-29T03:48:10;12.13;;;3.30;;
20458;SDS011;10388;52.314;7.938;2023-05-29T03:50:56;10.17;;;2.87;;
20458;SDS011;10388;52.314;7.938;2023-05-29T03:54:12;11.73;;;3.53;;
20458;SDS011;10388;52.314;7.938;2023-05-29T03:57:17;6.97;;;2.47;;
20458;SDS011;10388;52.314;7.938;2023-05-29T04:00:19;8.63;;;2.87;;
20458;SDS011;10388;52.314;7.938;2023-05-29T04:03:23;7.83;;;2.43;;
20458;SDS011;10388;52.314;7.938;2023-05-29T04:06:09;9.23;;;2.93;;
20458;SDS011;10388;52.314;7.938;2023-05-29T04:08:41;9.33;;;2.50;;
20458;SDS011;10388;52.314;7.938;2023-05-29T04:11:12;7.13;;;2.57;;
20458;SDS011;10388;52.314;7.938;2023-05-29T04:13:43;10.00;;;2.93;;
20458;SDS011;10388;52.314;7.938;2023-05-29T04:16:14;11.07;;;3.30;;
20458;SDS011;10388;52.314;7.938;2023-05-29T04:18:45;9.83;;;2.60;;
20458;SDS011;10388;52.314;7.938;2023-05-29T04:21:15;9.07;;;3.10;;
20458;SDS011;10388;52.314;7.938;2023-05-29T04:23:46;11.60;;;3.47;;
20458;SDS011;10388;52.314;7.938;2023-05-29T04:26:17;10.03;;;2.63;;
20458;SDS011;10388;52.314;7.938;2023-05-29T04:28:47;7.27;;;2.70;;
20458;SDS011;10388;52.314;7.938;2023-05-29T04:31:19;11.40;;;3.43;;
20458;SDS011;10388;52.314;7.938;2023-05-29T04:33:52;11.73;;;3.30;;
20458;SDS011;10388;52.314;7.938;2023-05-29T04:36:27;11.60;;;3.23;;
20458;SDS011;10388;52.314;7.938;2023-05-29T04:38:58;7.80;;;2.93;;
20458;SDS011;10388;52.314;7.938;2023-05-29T04:41:29;11.90;;;3.20;;
20458;SDS011;10388;52.314;7.938;2023-05-29T04:44:01;13.57;;;3.50;;
20458;SDS011;10388;52.314;7.938;2023-05-29T04:46:31;8.97;;;2.67;;
20458;SDS011;10388;52.314;7.938;2023-05-29T04:49:04;12.20;;;3.57;;
20458;SDS011;10388;52.314;7.938;2023-05-29T04:51:34;11.80;;;3.30;;
20458;SDS011;10388;52.314;7.938;2023-05-29T04:54:06;11.37;;;2.80;;
20458;SDS011;10388;52.314;7.938;2023-05-29T04:56:39;9.97;;;3.30;;
20458;SDS011;10388;52.314;7.938;2023-05-29T04:59:13;10.83;;;2.97;;
20458;SDS011;10388;52.314;7.938;2023-05-29T05:01:43;9.30;;;3.10;;
20458;SDS011;10388;52.314;7.938;2023-05-29T05:04:14;8.80;;;2.97;;
20458;SDS011;10388;52.314;7.938;2023-05-29T05:06:45;7.27;;;3.10;;
20458;SDS011;10388;52.314;7.938;2023-05-29T05:09:16;7.23;;;2.40;;
20458;SDS011;10388;52.314;7.938;2023-05-29T05:11:47;7.70;;;2.50;;
20458;SDS011;10388;52.314;7.938;2023-05-29T05:14:17;7.87;;;2.83;;
20458;SDS011;10388;52.314;7.938;2023-05-29T05:16:48;8.33;;;3.00;;
20458;SDS011;10388;52.314;7.938;2023-05-29T05:19:19;8.73;;;2.40;;
20458;SDS011;10388;52.314;7.938;2023-05-29T05:21:50;12.40;;;3.13;;
20458;SDS011;10388;52.314;7.938;2023-05-29T05:24:20;7.93;;;2.47;;
20458;SDS011;10388;52.314;7.938;2023-05-29T05:26:51;10.47;;;2.97;;
20458;SDS011;10388;52.314;7.938;2023-05-29T05:29:21;6.50;;;2.50;;
20458;SDS011;10388;52.314;7.938;2023-05-29T05:31:52;6.90;;;2.50;;
20458;SDS011;10388;52.314;7.938;2023-05-29T05:34:22;8.87;;;2.70;;
20458;SDS011;10388;52.314;7.938;2023-05-29T05:36:53;6.63;;;2.50;;
20458;SDS011;10388;52.314;7.938;2023-05-29T05:39:23;9.30;;;3.10;;
20458;SDS011;10388;52.314;7.938;2023-05-29T05:41:54;7.87;;;2.37;;
20458;SDS011;10388;52.314;7.938;2023-05-29T05:44:24;8.63;;;2.67;;
20458;SDS011;10388;52.314;7.938;2023-05-29T05:46:55;12.97;;;3.40;;
20458;SDS011;10388;52.314;7.938;2023-05-29T05:49:25;8.60;;;2.93;;
20458;SDS011;10388;52.314;7.938;2023-05-29T05:51:56;7.27;;;2.73;;
20458;SDS011;10388;52.314;7.938;2023-05-29T05:54:26;7.60;;;2.87;;
20458;SDS011;10388;52.314;7.938;2023-05-29T05:56:57;11.70;;;2.67;;
20458;SDS011;10388;52.314;7.938;2023-05-29T05:59:27;5.40;;;2.43;;
20458;SDS011;10388;52.314;7.938;2023-05-29T06:01:58;11.73;;;3.03;;
20458;SDS011;10388;52.314;7.938;2023-05-29T06:04:29;6.63;;;2.70;;
20458;SDS011;10388;52.314;7.938;2023-05-29T06:06:59;10.07;;;2.70;;
20458;SDS011;10388;52.314;7.938;2023-05-29T06:09:30;9.30;;;3.13;;
20458;SDS011;10388;52.314;7.938;2023-05-29T06:12:01;8.33;;;2.43;;
20458;SDS011;10388;52.314;7.938;2023-05-29T06:14:31;13.30;;;3.07;;
20458;SDS011;10388;52.314;7.938;2023-05-29T06:17:02;11.37;;;2.97;;
20458;SDS011;10388;52.314;7.938;2023-05-29T06:19:33;9.40;;;2.30;;
20458;SDS011;10388;52.314;7.938;2023-05-29T06:22:03;9.97;;;2.90;;
20458;SDS011;10388;52.314;7.938;2023-05-29T06:24:35;8.13;;;2.40;;
20458;SDS011;10388;52.314;7.938;2023-05-29T06:27:05;10.80;;;2.70;;
20458;SDS011;10388;52.314;7.938;2023-05-29T06:29:36;10.00;;;2.63;;
20458;SDS011;10388;52.314;7.938;2023-05-29T06:32:07;7.70;;;2.60;;
20458;SDS011;10388;52.314;7.938;2023-05-29T06:34:37;10.33;;;2.57;;
20458;SDS011;10388;52.314;7.938;2023-05-29T06:37:08;11.90;;;3.10;;
20458;SDS011;10388;52.314;7.938;2023-05-29T06:39:39;8.97;;;3.27;;
20458;SDS011;10388;52.314;7.938;2023-05-29T06:42:11;10.80;;;2.70;;
20458;SDS011;10388;52.314;7.938;2023-05-29T06:44:42;9.43;;;2.57;;
20458;SDS011;10388;52.314;7.938;2023-05-29T06:47:12;8.63;;;2.70;;
20458;SDS011;10388;52.314;7.938;2023-05-29T06:49:43;10.13;;;2.50;;
20458;SDS011;10388;52.314;7.938;2023-05-29T06:52:13;8.97;;;2.57;;
20458;SDS011;10388;52.314;7.938;2023-05-29T06:54:44;9.03;;;2.53;;
20458;SDS011;10388;52.314;7.938;2023-05-29T06:57:15;9.87;;;2.40;;
20458;SDS011;10388;52.314;7.938;2023-05-29T06:59:45;5.43;;;2.17;;
20458;SDS011;10388;52.314;7.938;2023-05-29T07:02:16;8.80;;;3.23;;
20458;SDS011;10388;52.314;7.938;2023-05-29T07:04:46;7.90;;;2.33;;
20458;SDS011;10388;52.314;7.938;2023-05-29T07:07:17;8.23;;;3.17;;
20458;SDS011;10388;52.314;7.938;2023-05-29T07:09:47;9.23;;;3.13;;
20458;SDS011;10388;52.314;7.938;2023-05-29T07:12:18;12.70;;;3.30;;
20458;SDS011;10388;52.314;7.938;2023-05-29T07:14:48;10.73;;;2.87;;
20458;SDS011;10388;52.314;7.938;2023-05-29T07:17:19;9.10;;;2.63;;
20458;SDS011;10388;52.314;7.938;2023-05-29T07:19:49;8.43;;;2.67;;
20458;SDS011;10388;52.314;7.938;2023-05-29T07:22:20;10.27;;;2.70;;
20458;SDS011;10388;52.314;7.938;2023-05-29T07:24:51;6.00;;;2.50;;
20458;SDS011;10388;52.314;7.938;2023-05-29T07:27:21;6.93;;;2.40;;
20458;SDS011;10388;52.314;7.938;2023-05-29T07:29:52;8.90;;;2.33;;
20458;SDS011;10388;52.314;7.938;2023-05-29T07:32:22;7.97;;;2.20;;
20458;SDS011;10388;52.314;7.938;2023-05-29T07:34:53;11.40;;;2.77;;
20458;SDS011;10388;52.314;7.938;2023-05-29T07:37:25;11.53;;;2.73;;
20458;SDS011;10388;52.314;7.938;2023-05-29T07:39:56;9.67;;;2.20;;
20458;SDS011;10388;52.314;7.938;2023-05-29T07:42:26;15.50;;;3.10;;
20458;SDS011;10388;52.314;7.938;2023-05-29T07:44:57;9.17;;;2.60;;
20458;SDS011;10388;52.314;7.938;2023-05-29T07:47:27;9.83;;;2.93;;
20458;SDS011;10388;52.314;7.938;2023-05-29T07:49:58;9.50;;;2.57;;
20458;SDS011;10388;52.314;7.938;2023-05-29T07:52:28;7.60;;;2.50;;
20458;SDS011;10388;52.314;7.938;2023-05-29T07:54:59;6.07;;;2.13;;
20458;SDS011;10388;52.314;7.938;2023-05-29T07:57:31;9.00;;;2.17;;
20458;SDS011;10388;52.314;7.938;2023-05-29T08:00:03;11.70;;;2.50;;
20458;SDS011;10388;52.314;7.938;2023-05-29T08:02:38;8.53;;;2.80;;
20458;SDS011;10388;52.314;7.938;2023-05-29T08:05:09;8.63;;;2.43;;
20458;SDS011;10388;52.314;7.938;2023-05-29T08:07:39;10.53;;;2.73;;
20458;SDS011;10388;52.314;7.938;2023-05-29T08:10:10;9.23;;;2.47;;
20458;SDS011;10388;52.314;7.938;2023-05-29T08:12:41;8.13;;;2.57;;
20458;SDS011;10388;52.314;7.938;2023-05-29T08:15:11;11.30;;;2.50;;
20458;SDS011;10388;52.314;7.938;2023-05-29T08:17:42;11.53;;;2.70;;
20458;SDS011;10388;52.314;7.938;2023-05-29T08:20:12;11.37;;;2.97;;
20458;SDS011;10388;52.314;7.938;2023-05-29T08:22:43;10.13;;;3.17;;
20458;SDS011;10388;52.314;7.938;2023-05-29T08:25:14;9.73;;;3.10;;
20458;SDS011;10388;52.314;7.938;2023-05-29T08:27:45;7.47;;;2.50;;
20458;SDS011;10388;52.314;7.938;2023-05-29T08:30:15;8.60;;;2.70;;
20458;SDS011;10388;52.314;7.938;2023-05-29T08:32:46;9.87;;;3.00;;
20458;SDS011;10388;52.314;7.938;2023-05-29T08:35:16;7.70;;;2.33;;
20458;SDS011;10388;52.314;7.938;2023-05-29T08:37:47;5.50;;;2.30;;
20458;SDS011;10388;52.314;7.938;2023-05-29T08:40:18;8.03;;;2.70;;
20458;SDS011;10388;52.314;7.938;2023-05-29T08:42:59;8.70;;;2.20;;
20458;SDS011;10388;52.314;7.938;2023-05-29T08:45:40;10.70;;;2.83;;
20458;SDS011;10388;52.314;7.938;2023-05-29T08:48:13;18.87;;;4.63;;
20458;SDS011;10388;52.314;7.938;2023-05-29T08:50:46;8.13;;;2.03;;
20458;SDS011;10388;52.314;7.938;2023-05-29T08:53:19;9.43;;;2.83;;
20458;SDS011;10388;52.314;7.938;2023-05-29T08:55:52;7.83;;;2.80;;
20458;SDS011;10388;52.314;7.938;2023-05-29T08:58:22;10.77;;;2.73;;
20458;SDS011;10388;52.314;7.938;2023-05-29T09:00:53;10.57;;;3.00;;
20458;SDS011;10388;52.314;7.938;2023-05-29T09:03:25;8.37;;;2.60;;
20458;SDS011;10388;52.314;7.938;2023-05-29T09:05:59;7.43;;;2.47;;
20458;SDS011;10388;52.314;7.938;2023-05-29T09:08:30;8.07;;;2.30;;
20458;SDS011;10388;52.314;7.938;2023-05-29T09:11:01;11.73;;;2.53;;
20458;SDS011;10388;52.314;7.938;2023-05-29T09:13:32;6.07;;;2.10;;
20458;SDS011;10388;52.314;7.938;2023-05-29T09:16:03;6.77;;;2.77;;
20458;SDS011;10388;52.314;7.938;2023-05-29T09:18:33;7.37;;;2.53;;
20458;SDS011;10388;52.314;7.938;2023-05-29T09:21:07;5.23;;;2.20;;
20458;SDS011;10388;52.314;7.938;2023-05-29T09:23:41;6.77;;;2.30;;
20458;SDS011;10388;52.314;7.938;2023-05-29T09:26:13;5.53;;;2.07;;
20458;SDS011;10388;52.314;7.938;2023-05-29T09:28:45;5.23;;;2.67;;
20458;SDS011;10388;52.314;7.938;2023-05-29T09:31:16;6.47;;;2.07;;
20458;SDS011;10388;52.314;7.938;2023-05-29T09:33:47;9.10;;;2.20;;
20458;SDS011;10388;52.314;7.938;2023-05-29T09:36:19;8.73;;;2.73;;
20458;SDS011;10388;52.314;7.938;2023-05-29T09:38:53;8.87;;;2.90;;
20458;SDS011;10388;52.314;7.938;2023-05-29T09:41:23;6.83;;;2.73;;
20458;SDS011;10388;52.314;7.938;2023-05-29T09:43:54;6.40;;;2.43;;
20458;SDS011;10388;52.314;7.938;2023-05-29T09:46:26;5.87;;;2.20;;
20458;SDS011;10388;52.314;7.938;2023-05-29T09:49:00;8.33;;;2.30;;
20458;SDS011;10388;52.314;7.938;2023-05-29T09:51:33;8.40;;;2.80;;
20458;SDS011;10388;52.314;7.938;2023-05-29T09:54:12;7.33;;;2.83;;
20458;SDS011;10388;52.314;7.938;2023-05-29T09:56:44;7.97;;;2.60;;
20458;SDS011;10388;52.314;7.938;2023-05-29T09:59:15;6.17;;;3.00;;
20458;SDS011;10388;52.314;7.938;2023-05-29T10:01:48;6.27;;;2.70;;
20458;SDS011;10388;52.314;7.938;2023-05-29T10:04:19;6.43;;;2.77;;
20458;SDS011;10388;52.314;7.938;2023-05-29T10:06:50;8.47;;;2.57;;
20458;SDS011;10388;52.314;7.938;2023-05-29T10:09:21;10.00;;;2.53;;
20458;SDS011;10388;52.314;7.938;2023-05-29T10:11:56;11.43;;;3.10;;
20458;SDS011;10388;52.314;7.938;2023-05-29T10:14:32;6.73;;;2.60;;
20458;SDS011;10388;52.314;7.938;2023-05-29T10:17:04;11.53;;;3.10;;
20458;SDS011;10388;52.314;7.938;2023-05-29T10:19:38;8.50;;;2.80;;
20458;SDS011;10388;52.314;7.938;2023-05-29T10:22:09;8.53;;;2.80;;
20458;SDS011;10388;52.314;7.938;2023-05-29T10:24:40;6.73;;;2.80;;
20458;SDS011;10388;52.314;7.938;2023-05-29T10:27:11;10.10;;;3.40;;
20458;SDS011;10388;52.314;7.938;2023-05-29T10:29:43;7.33;;;3.10;;
20458;SDS011;10388;52.314;7.938;2023-05-29T10:40:16;10.17;;;3.03;;
20458;SDS011;10388;52.314;7.938;2023-05-29T10:43:05;7.73;;;2.50;;
20458;SDS011;10388;52.314;7.938;2023-05-29T10:50:44;7.80;;;2.43;;
20458;SDS011;10388;52.314;7.938;2023-05-29T10:53:16;6.27;;;2.60;;
20458;SDS011;10388;52.314;7.938;2023-05-29T10:55:48;8.13;;;2.83;;
20458;SDS011;10388;52.314;7.938;2023-05-29T10:58:21;7.53;;;2.67;;
20458;SDS011;10388;52.314;7.938;2023-05-29T11:00:55;7.60;;;2.70;;
20458;SDS011;10388;52.314;7.938;2023-05-29T11:03:31;4.03;;;2.00;;
20458;SDS011;10388;52.314;7.938;2023-05-29T11:06:03;8.43;;;2.70;;
20458;SDS011;10388;52.314;7.938;2023-05-29T11:14:00;9.90;;;2.77;;
20458;SDS011;10388;52.314;7.938;2023-05-29T11:19:17;4.07;;;2.10;;
20458;SDS011;10388;52.314;7.938;2023-05-29T11:21:53;6.57;;;2.63;;
20458;SDS011;10388;52.314;7.938;2023-05-29T11:24:39;6.90;;;2.37;;
20458;SDS011;10388;52.314;7.938;2023-05-29T11:55:18;9.07;;;2.40;;
20458;SDS011;10388;52.314;7.938;2023-05-29T11:58:29;6.47;;;2.30;;
20458;SDS011;10388;52.314;7.938;2023-05-29T12:05:12;7.20;;;2.40;;
20458;SDS011;10388;52.314;7.938;2023-05-29T12:07:49;6.43;;;2.30;;
20458;SDS011;10388;52.314;7.938;2023-05-29T12:10:23;4.10;;;2.00;;
20458;SDS011;10388;52.314;7.938;2023-05-29T12:12:55;5.43;;;1.97;;
20458;SDS011;10388;52.314;7.938;2023-05-29T12:15:27;5.30;;;2.50;;
20458;SDS011;10388;52.314;7.938;2023-05-29T12:17:58;6.13;;;2.40;;
20458;SDS011;10388;52.314;7.938;2023-05-29T12:20:30;7.57;;;2.53;;
20458;SDS011;10388;52.314;7.938;2023-05-29T12:23:01;8.33;;;2.37;;
20458;SDS011;10388;52.314;7.938;2023-05-29T12:25:33;6.70;;;2.30;;
20458;SDS011;10388;52.314;7.938;2023-05-29T12:28:06;4.60;;;2.40;;
20458;SDS011;10388;52.314;7.938;2023-05-29T12:30:38;7.47;;;2.87;;
20458;SDS011;10388;52.314;7.938;2023-05-29T12:33:24;6.43;;;2.47;;
20458;SDS011;10388;52.314;7.938;2023-05-29T12:36:01;5.63;;;2.20;;
20458;SDS011;10388;52.314;7.938;2023-05-29T12:38:49;7.03;;;2.30;;
20458;SDS011;10388;52.314;7.938;2023-05-29T12:41:33;7.67;;;2.10;;
20458;SDS011;10388;52.314;7.938;2023-05-29T12:44:04;7.87;;;2.33;;
20458;SDS011;10388;52.314;7.938;2023-05-29T12:46:39;4.30;;;2.20;;
20458;SDS011;10388;52.314;7.938;2023-05-29T12:49:15;6.27;;;2.20;;
20458;SDS011;10388;52.314;7.938;2023-05-29T12:51:47;6.37;;;2.30;;
20458;SDS011;10388;52.314;7.938;2023-05-29T12:54:17;4.63;;;2.20;;
20458;SDS011;10388;52.314;7.938;2023-05-29T12:56:48;6.10;;;2.47;;
20458;SDS011;10388;52.314;7.938;2023-05-29T12:59:21;6.03;;;2.10;;
20458;SDS011;10388;52.314;7.938;2023-05-29T13:01:51;6.93;;;2.43;;
20458;SDS011;10388;52.314;7.938;2023-05-29T13:04:22;9.67;;;2.43;;
20458;SDS011;10388;52.314;7.938;2023-05-29T13:06:53;7.67;;;2.17;;
20458;SDS011;10388;52.314;7.938;2023-05-29T13:09:23;6.20;;;2.70;;
20458;SDS011;10388;52.314;7.938;2023-05-29T13:11:54;7.40;;;2.53;;
20458;SDS011;10388;52.314;7.938;2023-05-29T13:14:24;4.93;;;2.07;;
20458;SDS011;10388;52.314;7.938;2023-05-29T13:16:55;4.93;;;2.13;;
20458;SDS011;10388;52.314;7.938;2023-05-29T13:19:25;5.33;;;1.93;;
20458;SDS011;10388;52.314;7.938;2023-05-29T13:21:56;6.60;;;2.20;;
20458;SDS011;10388;52.314;7.938;2023-05-29T13:24:27;4.53;;;2.17;;
20458;SDS011;10388;52.314;7.938;2023-05-29T13:26:57;5.07;;;1.87;;
20458;SDS011;10388;52.314;7.938;2023-05-29T13:29:30;7.43;;;2.47;;
20458;SDS011;10388;52.314;7.938;2023-05-29T13:32:02;8.07;;;2.60;;
20458;SDS011;10388;52.314;7.938;2023-05-29T13:34:32;4.33;;;2.20;;
20458;SDS011;10388;52.314;7.938;2023-05-29T13:37:03;5.83;;;2.20;;
20458;SDS011;10388;52.314;7.938;2023-05-29T13:39:33;6.00;;;2.10;;
20458;SDS011;10388;52.314;7.938;2023-05-29T13:42:04;5.60;;;2.30;;
20458;SDS011;10388;52.314;7.938;2023-05-29T13:44:36;5.53;;;2.03;;
20458;SDS011;10388;52.314;7.938;2023-05-29T13:47:07;6.43;;;2.57;;
20458;SDS011;10388;52.314;7.938;2023-05-29T13:49:38;6.00;;;2.27;;
20458;SDS011;10388;52.314;7.938;2023-05-29T13:52:08;6.90;;;2.53;;
20458;SDS011;10388;52.314;7.938;2023-05-29T13:54:39;6.73;;;2.30;;
20458;SDS011;10388;52.314;7.938;2023-05-29T13:57:09;6.33;;;2.10;;
20458;SDS011;10388;52.314;7.938;2023-05-29T13:59:40;5.83;;;2.23;;
20458;SDS011;10388;52.314;7.938;2023-05-29T14:02:10;6.23;;;2.20;;
20458;SDS011;10388;52.314;7.938;2023-05-29T14:04:41;6.30;;;2.47;;
20458;SDS011;10388;52.314;7.938;2023-05-29T14:07:13;5.20;;;2.10;;
20458;SDS011;10388;52.314;7.938;2023-05-29T14:09:43;3.60;;;1.67;;
20458;SDS011;10388;52.314;7.938;2023-05-29T14:12:14;5.90;;;2.43;;
20458;SDS011;10388;52.314;7.938;2023-05-29T14:14:45;7.90;;;2.30;;
20458;SDS011;10388;52.314;7.938;2023-05-29T14:17:15;5.77;;;2.20;;
20458;SDS011;10388;52.314;7.938;2023-05-29T14:19:46;4.20;;;2.03;;
20458;SDS011;10388;52.314;7.938;2023-05-29T14:22:17;5.10;;;2.07;;
20458;SDS011;10388;52.314;7.938;2023-05-29T14:24:48;6.87;;;2.33;;
20458;SDS011;10388;52.314;7.938;2023-05-29T14:27:18;5.43;;;2.00;;
20458;SDS011;10388;52.314;7.938;2023-05-29T14:29:49;4.73;;;2.10;;
20458;SDS011;10388;52.314;7.938;2023-05-29T14:32:19;6.13;;;2.30;;
20458;SDS011;10388;52.314;7.938;2023-05-29T14:34:50;5.93;;;2.13;;
20458;SDS011;10388;52.314;7.938;2023-05-29T14:37:22;10.33;;;2.47;;
20458;SDS011;10388;52.314;7.938;2023-05-29T14:39:52;6.60;;;2.33;;
20458;SDS011;10388;52.314;7.938;2023-05-29T14:42:23;4.87;;;2.07;;
20458;SDS011;10388;52.314;7.938;2023-05-29T14:44:53;7.07;;;2.10;;
20458;SDS011;10388;52.314;7.938;2023-05-29T14:47:24;8.40;;;2.33;;
20458;SDS011;10388;52.314;7.938;2023-05-29T14:49:55;6.80;;;2.17;;
20458;SDS011;10388;52.314;7.938;2023-05-29T14:52:25;4.17;;;2.10;;
20458;SDS011;10388;52.314;7.938;2023-05-29T14:54:56;5.50;;;2.00;;
20458;SDS011;10388;52.314;7.938;2023-05-29T14:57:26;6.17;;;2.07;;
20458;SDS011;10388;52.314;7.938;2023-05-29T14:59:57;5.00;;;2.00;;
20458;SDS011;10388;52.314;7.938;2023-05-29T15:02:27;3.47;;;1.97;;
20458;SDS011;10388;52.314;7.938;2023-05-29T15:04:58;7.03;;;2.37;;
20458;SDS011;10388;52.314;7.938;2023-05-29T15:07:28;9.70;;;2.93;;
20458;SDS011;10388;52.314;7.938;2023-05-29T15:10:00;5.67;;;2.17;;
20458;SDS011;10388;52.314;7.938;2023-05-29T15:12:31;6.20;;;2.30;;
20458;SDS011;10388;52.314;7.938;2023-05-29T15:15:02;4.57;;;1.93;;
20458;SDS011;10388;52.314;7.938;2023-05-29T15:17:33;7.27;;;2.30;;
20458;SDS011;10388;52.314;7.938;2023-05-29T15:20:04;5.77;;;2.13;;
20458;SDS011;10388;52.314;7.938;2023-05-29T15:22:35;6.20;;;2.10;;
20458;SDS011;10388;52.314;7.938;2023-05-29T15:25:06;4.93;;;2.07;;
20458;SDS011;10388;52.314;7.938;2023-05-29T15:27:37;4.83;;;2.07;;
20458;SDS011;10388;52.314;7.938;2023-05-29T15:30:08;5.77;;;2.10;;
20458;SDS011;10388;52.314;7.938;2023-05-29T15:32:43;4.50;;;1.80;;
20458;SDS011;10388;52.314;7.938;2023-05-29T15:35:14;7.90;;;2.33;;
20458;SDS011;10388;52.314;7.938;2023-05-29T15:37:45;4.80;;;2.10;;
20458;SDS011;10388;52.314;7.938;2023-05-29T15:40:16;5.47;;;2.03;;
20458;SDS011;10388;52.314;7.938;2023-05-29T15:42:46;3.43;;;1.93;;
20458;SDS011;10388;52.314;7.938;2023-05-29T15:45:17;5.93;;;2.13;;
20458;SDS011;10388;52.314;7.938;2023-05-29T15:47:49;4.57;;;2.23;;
20458;SDS011;10388;52.314;7.938;2023-05-29T15:50:20;4.87;;;2.00;;
20458;SDS011;10388;52.314;7.938;2023-05-29T15:52:51;5.60;;;1.90;;
20458;SDS011;10388;52.314;7.938;2023-05-29T15:55:24;4.27;;;2.23;;
20458;SDS011;10388;52.314;7.938;2023-05-29T15:57:55;4.57;;;2.73;;
20458;SDS011;10388;52.314;7.938;2023-05-29T16:00:26;9.50;;;2.50;;
20458;SDS011;10388;52.314;7.938;2023-05-29T16:02:56;5.90;;;2.27;;
20458;SDS011;10388;52.314;7.938;2023-05-29T16:05:27;6.17;;;1.87;;
20458;SDS011;10388;52.314;7.938;2023-05-29T16:07:57;6.00;;;2.00;;
20458;SDS011;10388;52.314;7.938;2023-05-29T16:10:28;5.20;;;1.93;;
20458;SDS011;10388;52.314;7.938;2023-05-29T16:12:59;6.27;;;2.23;;
20458;SDS011;10388;52.314;7.938;2023-05-29T16:15:29;6.30;;;2.03;;
20458;SDS011;10388;52.314;7.938;2023-05-29T16:18:00;6.23;;;2.10;;
20458;SDS011;10388;52.314;7.938;2023-05-29T16:20:31;4.37;;;2.30;;
20458;SDS011;10388;52.314;7.938;2023-05-29T16:23:01;6.20;;;1.60;;
20458;SDS011;10388;52.314;7.938;2023-05-29T16:25:32;6.20;;;2.00;;
20458;SDS011;10388;52.314;7.938;2023-05-29T16:28:03;3.63;;;1.70;;
20458;SDS011;10388;52.314;7.938;2023-05-29T16:30:33;4.33;;;2.07;;
20458;SDS011;10388;52.314;7.938;2023-05-29T16:33:05;10.97;;;2.50;;
20458;SDS011;10388;52.314;7.938;2023-05-29T16:35:36;4.60;;;2.10;;
20458;SDS011;10388;52.314;7.938;2023-05-29T16:38:06;5.53;;;1.73;;
20458;SDS011;10388;52.314;7.938;2023-05-29T16:40:37;8.77;;;1.90;;
20458;SDS011;10388;52.314;7.938;2023-05-29T16:43:07;5.47;;;1.70;;
20458;SDS011;10388;52.314;7.938;2023-05-29T16:45:38;6.70;;;2.10;;
20458;SDS011;10388;52.314;7.938;2023-05-29T16:48:09;4.17;;;2.23;;
20458;SDS011;10388;52.314;7.938;2023-05-29T16:50:40;5.33;;;2.10;;
20458;SDS011;10388;52.314;7.938;2023-05-29T16:53:10;6.70;;;2.47;;
20458;SDS011;10388;52.314;7.938;2023-05-29T16:55:41;6.67;;;2.33;;
20458;SDS011;10388;52.314;7.938;2023-05-29T16:58:11;6.47;;;2.37;;
20458;SDS011;10388;52.314;7.938;2023-05-29T17:00:42;3.07;;;1.67;;
20458;SDS011;10388;52.314;7.938;2023-05-29T17:03:12;4.27;;;1.63;;
20458;SDS011;10388;52.314;7.938;2023-05-29T17:05:43;4.87;;;1.87;;
20458;SDS011;10388;52.314;7.938;2023-05-29T17:08:15;5.63;;;1.80;;
20458;SDS011;10388;52.314;7.938;2023-05-29T17:10:46;5.43;;;1.60;;
20458;SDS011;10388;52.314;7.938;2023-05-29T17:13:17;5.53;;;1.80;;
20458;SDS011;10388;52.314;7.938;2023-05-29T17:15:48;3.10;;;1.80;;
20458;SDS011;10388;52.314;7.938;2023-05-29T17:18:18;4.40;;;1.80;;
20458;SDS011;10388;52.314;7.938;2023-05-29T17:20:49;3.23;;;1.60;;
20458;SDS011;10388;52.314;7.938;2023-05-29T17:23:20;4.33;;;1.83;;
20458;SDS011;10388;52.314;7.938;2023-05-29T17:25:50;4.50;;;1.80;;
20458;SDS011;10388;52.314;7.938;2023-05-29T17:28:22;5.40;;;1.70;;
20458;SDS011;10388;52.314;7.938;2023-05-29T17:30:52;3.80;;;1.90;;
20458;SDS011;10388;52.314;7.938;2023-05-29T17:33:23;7.27;;;2.20;;
20458;SDS011;10388;52.314;7.938;2023-05-29T17:35:53;6.83;;;1.90;;
20458;SDS011;10388;52.314;7.938;2023-05-29T17:38:24;5.67;;;1.40;;
20458;SDS011;10388;52.314;7.938;2023-05-29T17:40:55;6.83;;;1.80;;
20458;SDS011;10388;52.314;7.938;2023-05-29T17:43:25;5.03;;;1.70;;
20458;SDS011;10388;52.314;7.938;2023-05-29T17:45:56;4.40;;;1.70;;
20458;SDS011;10388;52.314;7.938;2023-05-29T17:48:28;7.23;;;1.97;;
20458;SDS011;10388;52.314;7.938;2023-05-29T17:50:59;4.83;;;1.73;;
20458;SDS011;10388;52.314;7.938;2023-05-29T17:53:29;7.10;;;1.83;;
20458;SDS011;10388;52.314;7.938;2023-05-29T17:56:00;6.30;;;1.70;;
20458;SDS011;10388;52.314;7.938;2023-05-29T17:58:31;6.77;;;1.90;;
20458;SDS011;10388;52.314;7.938;2023-05-29T18:01:02;7.97;;;1.70;;
20458;SDS011;10388;52.314;7.938;2023-05-29T18:03:33;11.30;;;2.10;;
20458;SDS011;10388;52.314;7.938;2023-05-29T18:06:03;4.30;;;1.70;;
20458;SDS011;10388;52.314;7.938;2023-05-29T18:08:34;3.97;;;1.70;;
20458;SDS011;10388;52.314;7.938;2023-05-29T18:11:07;10.67;;;1.67;;
20458;SDS011;10388;52.314;7.938;2023-05-29T18:13:37;3.57;;;1.70;;